createdAt,value
2022-11-03T00:01:39.880Z,-69
2022-11-03T00:04:08.509Z,-70
2022-11-03T00:06:35.888Z,-68
2022-11-03T00:09:04.421Z,-67
2022-11-03T00:11:34.282Z,-67
2022-11-03T00:14:00.983Z,-67
2022-11-03T00:16:27.673Z,-68
2022-11-03T00:18:54.784Z,-68
2022-11-03T00:21:22.546Z,-67
2022-11-03T00:23:49.747Z,-67
2022-11-03T00:26:24.099Z,-67
2022-11-03T00:28:52.781Z,-66
2022-11-03T00:31:25.705Z,-67
2022-11-03T00:33:53.386Z,-66
2022-11-03T00:36:23.063Z,-68
2022-11-03T00:38:50.292Z,-68
2022-11-03T00:41:17.813Z,-66
2022-11-03T00:43:44.993Z,-67
2022-11-03T00:46:11.550Z,-67
2022-11-03T00:48:38.630Z,-69
2022-11-03T00:51:05.217Z,-68
2022-11-03T00:53:34.498Z,-67
2022-11-03T00:56:02.111Z,-67
2022-11-03T00:58:28.753Z,-67
2022-11-03T01:01:07.938Z,-68
2022-11-03T01:03:37.836Z,-67
2022-11-03T01:06:28.212Z,-67
2022-11-03T01:08:54.804Z,-68
2022-11-03T01:11:42.725Z,-69
2022-11-03T01:14:15.692Z,-68
2022-11-03T01:16:42.542Z,-67
2022-11-03T01:19:09.361Z,-67
2022-11-03T01:21:36.045Z,-68
2022-11-03T01:24:04.594Z,-67
2022-11-03T01:26:31.909Z,-68
2022-11-03T01:29:00.668Z,-68
2022-11-03T01:31:28.625Z,-69
2022-11-03T01:33:56.627Z,-68
2022-11-03T01:36:24.099Z,-68
2022-11-03T01:38:50.776Z,-67
2022-11-03T01:41:22.806Z,-68
2022-11-03T01:44:12.596Z,-67
2022-11-03T01:46:48.119Z,-68
2022-11-03T01:49:25.378Z,-67
2022-11-03T01:51:57.059Z,-68
2022-11-03T01:54:26.391Z,-67
2022-11-03T01:56:59.494Z,-62
2022-11-03T01:59:27.678Z,-60
2022-11-03T02:01:54.533Z,-61
2022-11-03T02:04:27.571Z,-62
2022-11-03T02:07:03.219Z,-62
2022-11-03T02:09:31.212Z,-61
2022-11-03T02:12:06.823Z,-60
2022-11-03T02:14:39.414Z,-60
2022-11-03T02:17:12.385Z,-61
2022-11-03T02:19:47.764Z,-60
2022-11-03T02:22:49.988Z,-60
2022-11-03T02:25:48.621Z,-60
2022-11-03T02:28:21.581Z,-62
2022-11-03T02:31:13.181Z,-60
2022-11-03T02:33:53.491Z,-62
2022-11-03T02:36:42.848Z,-61
2022-11-03T02:39:14.716Z,-61
2022-11-03T02:41:43.077Z,-61
2022-11-03T02:44:16.387Z,-61
2022-11-03T02:46:46.164Z,-60
2022-11-03T02:49:13.280Z,-60
2022-11-03T02:51:40.246Z,-61
2022-11-03T02:54:12.816Z,-61
2022-11-03T02:56:47.558Z,-60
2022-11-03T02:59:19.461Z,-60
2022-11-03T03:01:56.451Z,-61
2022-11-03T03:04:31.044Z,-60
2022-11-03T03:07:02.633Z,-61
2022-11-03T03:09:37.743Z,-62
2022-11-03T03:12:06.544Z,-60
2022-11-03T03:14:38.023Z,-61
2022-11-03T03:17:13.147Z,-62
2022-11-03T03:19:49.295Z,-62
2022-11-03T03:22:40.634Z,-62
2022-11-03T03:25:24.072Z,-60
2022-11-03T03:27:55.596Z,-60
2022-11-03T03:30:22.448Z,-60
2022-11-03T03:32:51.574Z,-59
2022-11-03T03:35:23.909Z,-60
2022-11-03T03:37:54.863Z,-60
2022-11-03T03:40:26.475Z,-60
2022-11-03T03:42:53.325Z,-60
2022-11-03T03:45:20.506Z,-60
2022-11-03T03:47:48.124Z,-62
2022-11-03T03:50:14.854Z,-60
2022-11-03T03:52:41.471Z,-61
2022-11-03T03:55:16.540Z,-60
2022-11-03T03:57:43.874Z,-60
2022-11-03T04:00:14.117Z,-60
2022-11-03T04:02:40.637Z,-61
2022-11-03T04:05:07.320Z,-59
2022-11-03T04:07:49.100Z,-59
2022-11-03T04:10:17.525Z,-60
2022-11-03T04:13:04.270Z,-60
2022-11-03T04:15:50.754Z,-60
2022-11-03T04:18:37.194Z,-63
2022-11-03T04:21:23.692Z,-62
2022-11-03T04:23:50.596Z,-62
2022-11-03T04:26:19.606Z,-61
2022-11-03T04:28:46.483Z,-62
2022-11-03T04:31:14.462Z,-62
2022-11-03T04:33:42.172Z,-62
2022-11-03T04:36:17.734Z,-62
2022-11-03T04:38:44.507Z,-60
2022-11-03T04:41:21.765Z,-60
2022-11-03T04:43:49.983Z,-61
2022-11-03T04:46:23.411Z,-60
2022-11-03T04:48:50.545Z,-60
2022-11-03T04:51:19.956Z,-61
2022-11-03T04:54:01.581Z,-60
2022-11-03T04:56:28.439Z,-61
2022-11-03T04:58:54.977Z,-61
2022-11-03T05:01:24.739Z,-60
2022-11-03T05:03:54.405Z,-60
2022-11-03T05:06:23.828Z,-60
2022-11-03T05:08:55.286Z,-61
2022-11-03T05:11:32.109Z,-61
2022-11-03T05:14:04.537Z,-61
2022-11-03T05:16:31.717Z,-60
2022-11-03T05:18:58.725Z,-60
2022-11-03T05:21:28.030Z,-60
2022-11-03T05:24:10.366Z,-61
2022-11-03T05:26:37.435Z,-61
2022-11-03T05:29:13.379Z,-61
2022-11-03T05:31:41.738Z,-62
2022-11-03T05:34:31.373Z,-61
2022-11-03T05:37:26.827Z,-60
2022-11-03T05:39:59.855Z,-61
2022-11-03T05:42:32.064Z,-58
2022-11-03T05:45:02.039Z,-60
2022-11-03T05:47:36.276Z,-61
2022-11-03T05:50:18.863Z,-61
2022-11-03T05:52:47.304Z,-61
2022-11-03T05:55:25.409Z,-62
2022-11-03T05:57:52.652Z,-61
2022-11-03T06:00:27.864Z,-63
2022-11-03T06:02:55.378Z,-62
2022-11-03T06:05:23.791Z,-63
2022-11-03T06:07:53.462Z,-61
2022-11-03T06:10:27.420Z,-62
2022-11-03T06:13:02.084Z,-62
2022-11-03T06:15:35.224Z,-62
2022-11-03T06:18:14.381Z,-62
2022-11-03T06:20:41.261Z,-63
2022-11-03T06:23:15.619Z,-63
2022-11-03T06:25:43.494Z,-63
2022-11-03T06:28:18.384Z,-63
2022-11-03T06:30:46.067Z,-62
2022-11-03T06:33:24.756Z,-62
2022-11-03T06:35:54.255Z,-62
2022-11-03T06:38:27.213Z,-62
2022-11-03T06:40:53.906Z,-62
2022-11-03T06:43:24.664Z,-63
2022-11-03T06:45:57.260Z,-61
2022-11-03T06:48:26.417Z,-62
2022-11-03T06:50:53.541Z,-61
2022-11-03T06:53:31.500Z,-61
2022-11-03T06:56:00.660Z,-62
2022-11-03T06:58:36.739Z,-62
2022-11-03T07:01:18.671Z,-61
2022-11-03T07:03:45.991Z,-61
2022-11-03T07:06:25.268Z,-62
2022-11-03T07:08:55.049Z,-62
2022-11-03T07:11:34.870Z,-62
2022-11-03T07:14:10.434Z,-63
2022-11-03T07:16:45.269Z,-63
2022-11-03T07:19:36.749Z,-63
2022-11-03T07:22:14.754Z,-62
2022-11-03T07:24:44.530Z,-62
2022-11-03T07:27:23.348Z,-62
2022-11-03T07:29:51.572Z,-62
2022-11-03T07:32:24.128Z,-62
2022-11-03T07:34:53.736Z,-62
2022-11-03T07:37:24.304Z,-62
2022-11-03T07:39:51.917Z,-69
2022-11-03T07:42:23.375Z,-64
2022-11-03T07:44:50.885Z,-63
2022-11-03T07:47:25.799Z,-63
2022-11-03T07:49:52.434Z,-62
2022-11-03T07:52:26.181Z,-62
2022-11-03T07:54:57.101Z,-63
2022-11-03T07:57:28.356Z,-62
2022-11-03T08:00:03.894Z,-62
2022-11-03T08:02:59.295Z,-62
2022-11-03T08:05:25.899Z,-63
2022-11-03T08:07:52.433Z,-63
2022-11-03T08:10:19.036Z,-63
2022-11-03T08:12:45.609Z,-63
2022-11-03T08:15:12.155Z,-64
2022-11-03T08:17:38.740Z,-63
2022-11-03T08:20:05.709Z,-62
2022-11-03T08:22:32.197Z,-62
2022-11-03T08:24:58.707Z,-63
2022-11-03T08:27:25.532Z,-62
2022-11-03T08:29:52.131Z,-62
2022-11-03T08:32:18.648Z,-64
2022-11-03T08:34:45.266Z,-65
2022-11-03T08:37:11.824Z,-67
2022-11-03T08:39:38.432Z,-66
2022-11-03T08:42:04.957Z,-63
2022-11-03T08:44:31.490Z,-68
2022-11-03T08:46:58.021Z,-62
2022-11-03T08:49:24.628Z,-64
2022-11-03T08:51:51.422Z,-66
2022-11-03T08:54:17.933Z,-64
2022-11-03T08:56:46.725Z,-66
2022-11-03T08:59:13.520Z,-65
2022-11-03T09:01:40.207Z,-64
2022-11-03T09:04:06.808Z,-67
2022-11-03T09:06:33.597Z,-64
2022-11-03T09:11:48.024Z,-62
2022-11-03T09:14:14.939Z,-68
2022-11-03T09:16:41.444Z,-66
2022-11-03T09:19:08.062Z,-64
2022-11-03T09:21:34.677Z,-69
2022-11-03T09:24:01.454Z,-64
2022-11-03T09:26:28.209Z,-63
2022-11-03T09:28:54.836Z,-68
2022-11-03T09:31:21.369Z,-67
2022-11-03T09:33:47.931Z,-63
2022-11-03T09:36:14.509Z,-67
2022-11-03T09:38:41.012Z,-64
2022-11-03T09:41:18.649Z,-66
2022-11-03T09:43:54.578Z,-61
2022-11-03T09:46:21.256Z,-66
2022-11-03T09:48:47.844Z,-65
2022-11-03T09:51:19.351Z,-66
2022-11-03T09:53:46.696Z,-64
2022-11-03T09:56:13.535Z,-62
2022-11-03T09:58:41.327Z,-63
2022-11-03T10:01:11.292Z,-69
2022-11-03T10:03:39.745Z,-66
2022-11-03T10:06:10.972Z,-65
2022-11-03T10:08:42.168Z,-65
2022-11-03T10:11:09.439Z,-65
2022-11-03T10:13:39.060Z,-66
2022-11-03T10:16:08.979Z,-65
2022-11-03T10:18:37.135Z,-67
2022-11-03T10:21:06.437Z,-68
2022-11-03T10:23:33.401Z,-68
2022-11-03T10:26:17.780Z,-64
2022-11-03T10:29:06.071Z,-62
2022-11-03T10:31:35.178Z,-65
2022-11-03T10:34:02.272Z,-64
2022-11-03T10:36:31.217Z,-63
2022-11-03T10:38:58.413Z,-67
2022-11-03T10:41:29.965Z,-63
2022-11-03T10:44:19.804Z,-65
2022-11-03T10:47:01.160Z,-63
2022-11-03T10:49:30.363Z,-62
2022-11-03T10:52:19.717Z,-63
2022-11-03T10:54:46.686Z,-63
2022-11-03T10:57:14.134Z,-63
2022-11-03T10:59:41.349Z,-62
2022-11-03T11:02:18.634Z,-62
2022-11-03T11:05:16.120Z,-62
2022-11-03T11:07:44.895Z,-63
2022-11-03T11:10:23.922Z,-62
2022-11-03T11:13:25.019Z,-61
2022-11-03T11:15:59.604Z,-60
2022-11-03T11:18:29.308Z,-62
2022-11-03T11:20:57.284Z,-64
2022-11-03T11:23:30.116Z,-64
2022-11-03T11:26:15.094Z,-65
2022-11-03T11:29:10.459Z,-65
2022-11-03T11:31:46.209Z,-65
2022-11-03T11:34:17.501Z,-65
2022-11-03T11:37:11.217Z,-63
2022-11-03T11:39:44.398Z,-63
2022-11-03T11:42:21.447Z,-63
2022-11-03T11:44:55.855Z,-63
2022-11-03T11:47:34.809Z,-59
2022-11-03T11:50:07.582Z,-62
2022-11-03T11:52:49.976Z,-53
2022-11-03T11:55:25.229Z,-63
2022-11-03T11:57:53.679Z,-63
2022-11-03T12:00:22.677Z,-63
2022-11-03T12:02:50.265Z,-63
2022-11-03T12:05:27.843Z,-62
2022-11-03T12:07:55.623Z,-63
2022-11-03T12:10:27.948Z,-63
2022-11-03T12:12:55.960Z,-63
2022-11-03T12:15:48.472Z,-63
2022-11-03T12:18:38.940Z,-63
2022-11-03T12:21:14.706Z,-64
2022-11-03T12:23:43.688Z,-63
2022-11-03T12:26:36.170Z,-63
2022-11-03T12:29:05.405Z,-63
2022-11-03T12:31:34.512Z,-63
2022-11-03T12:34:03.855Z,-63
2022-11-03T12:36:30.376Z,-63
2022-11-03T12:38:56.943Z,-63
2022-11-03T12:41:24.875Z,-60
2022-11-03T12:43:53.306Z,-59
2022-11-03T12:46:21.418Z,-59
2022-11-03T12:48:49.132Z,-63
2022-11-03T12:51:17.830Z,-61
2022-11-03T12:53:44.680Z,-63
2022-11-03T12:56:12.959Z,-61
2022-11-03T12:58:39.966Z,-65
2022-11-03T13:01:08.076Z,-64
2022-11-03T13:03:36.192Z,-68
2022-11-03T13:06:04.760Z,-66
2022-11-03T13:08:32.040Z,-60
2022-11-03T13:10:59.065Z,-65
2022-11-03T13:13:25.766Z,-67
2022-11-03T13:15:53.684Z,-66
2022-11-03T13:18:21.160Z,-64
2022-11-03T13:20:47.786Z,-60
2022-11-03T13:23:17.422Z,-60
2022-11-03T13:25:47.219Z,-61
2022-11-03T13:28:14.036Z,-71
2022-11-03T13:30:41.503Z,-69
2022-11-03T13:33:08.349Z,-66
2022-11-03T13:35:35.669Z,-55
2022-11-03T13:38:02.209Z,-75
2022-11-03T13:40:55.064Z,-77
2022-11-03T13:43:15.456Z,-58
2022-11-03T13:45:42.319Z,-59
2022-11-03T13:50:56.795Z,-60
2022-11-03T13:56:16.935Z,-84
2022-11-03T14:01:36.831Z,-82
2022-11-03T14:06:50.568Z,-81
2022-11-03T14:09:17.352Z,-74
2022-11-03T14:12:02.631Z,-66
2022-11-03T14:14:29.134Z,-68
2022-11-03T14:16:55.797Z,-72
2022-11-03T14:19:30.800Z,-67
2022-11-03T14:22:01.963Z,-63
2022-11-03T14:24:28.831Z,-61
2022-11-03T14:26:55.367Z,-62
2022-11-03T14:29:22.489Z,-62
2022-11-03T14:31:49.032Z,-62
2022-11-03T14:34:15.654Z,-63
2022-11-03T14:36:42.437Z,-63
2022-11-03T14:39:08.996Z,-62
2022-11-03T14:41:53.876Z,-64
2022-11-03T14:44:20.429Z,-63
2022-11-03T14:46:46.920Z,-62
2022-11-03T14:49:13.588Z,-63
2022-11-03T14:51:40.286Z,-62
2022-11-03T14:54:06.818Z,-63
2022-11-03T14:56:33.412Z,-62
2022-11-03T14:58:59.894Z,-62
2022-11-03T15:01:26.505Z,-62
2022-11-03T15:03:53.164Z,-62
2022-11-03T15:06:19.773Z,-62
2022-11-03T15:08:46.392Z,-61
2022-11-03T15:11:13.003Z,-62
2022-11-03T15:13:44.103Z,-62
2022-11-03T15:16:13.717Z,-62
2022-11-03T15:18:40.553Z,-62
2022-11-03T15:21:07.119Z,-64
2022-11-03T15:26:20.219Z,-61
2022-11-03T15:28:46.936Z,-61
2022-11-03T15:31:13.706Z,-62
2022-11-03T15:33:40.523Z,-62
2022-11-03T15:36:08.371Z,-62
2022-11-03T15:38:35.357Z,-61
2022-11-03T15:41:17.460Z,-61
2022-11-03T15:43:46.297Z,-59
2022-11-03T15:46:14.062Z,-61
2022-11-03T15:48:41.197Z,-75
2022-11-03T15:51:08.206Z,-56
2022-11-03T15:53:34.817Z,-58
2022-11-03T15:56:01.592Z,-60
2022-11-03T15:58:28.353Z,-61
2022-11-03T16:00:55.047Z,-60
2022-11-03T16:03:21.680Z,-61
2022-11-03T16:05:48.245Z,-61
2022-11-03T16:08:14.756Z,-61
2022-11-03T16:10:47.956Z,-61
2022-11-03T16:13:17.231Z,-62
2022-11-03T16:15:43.742Z,-59
2022-11-03T16:18:10.624Z,-60
2022-11-03T16:20:37.665Z,-60
2022-11-03T16:23:04.187Z,-69
2022-11-03T16:25:30.784Z,-60
2022-11-03T16:27:57.490Z,-58
2022-11-03T16:30:24.048Z,-59
2022-11-03T16:32:53.133Z,-59
2022-11-03T16:35:20.683Z,-60
2022-11-03T16:37:47.351Z,-60
2022-11-03T16:40:18.996Z,-66
2022-11-03T16:42:46.718Z,-66
2022-11-03T16:45:21.655Z,-66
2022-11-03T16:47:49.927Z,-66
2022-11-03T16:50:17.223Z,-66
2022-11-03T16:52:44.483Z,-66
2022-11-03T16:55:12.021Z,-66
2022-11-03T16:57:39.280Z,-66
2022-11-03T17:00:08.993Z,-66
2022-11-03T17:02:35.760Z,-66
2022-11-03T17:05:02.314Z,-66
2022-11-03T17:07:28.816Z,-66
2022-11-03T17:09:55.362Z,-66
2022-11-03T17:12:21.831Z,-66
2022-11-03T17:14:51.256Z,-66
2022-11-03T17:17:20.974Z,-66
2022-11-03T17:19:47.552Z,-66
2022-11-03T17:22:14.650Z,-66
2022-11-03T17:24:41.207Z,-66
2022-11-03T17:27:19.089Z,-61
2022-11-03T17:29:52.297Z,-62
2022-11-03T17:32:31.689Z,-62
2022-11-03T17:34:58.778Z,-61
2022-11-03T17:37:27.108Z,-61
2022-11-03T17:39:53.993Z,-61
2022-11-03T17:42:25.642Z,-63
2022-11-03T17:44:56.973Z,-64
2022-11-03T17:47:24.492Z,-59
2022-11-03T17:49:51.436Z,-78
2022-11-03T17:52:26.739Z,-61
2022-11-03T17:54:57.182Z,-61
2022-11-03T17:57:24.522Z,-61
2022-11-03T17:59:53.981Z,-62
2022-11-03T18:02:23.528Z,-62
2022-11-03T18:04:51.361Z,-62
2022-11-03T18:07:25.795Z,-63
2022-11-03T18:09:53.166Z,-63
2022-11-03T18:12:42.444Z,-61
2022-11-03T18:15:16.443Z,-61
2022-11-03T18:17:43.499Z,-60
2022-11-03T18:20:22.101Z,-61
2022-11-03T18:22:48.651Z,-61
2022-11-03T18:25:17.837Z,-60
2022-11-03T18:27:44.632Z,-63
2022-11-03T18:30:13.117Z,-61
2022-11-03T18:32:41.315Z,-61
2022-11-03T18:35:17.317Z,-60
2022-11-03T18:37:45.352Z,-60
2022-11-03T18:40:13.110Z,-61
2022-11-03T18:42:39.702Z,-61
2022-11-03T18:45:16.834Z,-60
2022-11-03T18:47:44.328Z,-60
2022-11-03T18:50:16.177Z,-60
2022-11-03T18:52:45.329Z,-61
2022-11-03T18:55:12.858Z,-61
2022-11-03T18:57:39.836Z,-61
2022-11-03T19:00:15.474Z,-61
2022-11-03T19:02:42.102Z,-62
2022-11-03T19:05:13.453Z,-63
2022-11-03T19:07:42.371Z,-62
2022-11-03T19:10:13.140Z,-61
2022-11-03T19:12:43.252Z,-61
2022-11-03T19:15:18.068Z,-61
2022-11-03T19:17:45.138Z,-61
2022-11-03T19:20:13.762Z,-61
2022-11-03T19:22:40.708Z,-61
2022-11-03T19:25:07.864Z,-61
2022-11-03T19:27:36.794Z,-61
2022-11-03T19:30:04.743Z,-61
2022-11-03T19:32:41.413Z,-61
2022-11-03T19:35:35.176Z,-62
2022-11-03T19:38:11.198Z,-61
2022-11-03T19:40:38.873Z,-61
2022-11-03T19:43:09.465Z,-61
2022-11-03T19:45:36.114Z,-61
2022-11-03T19:50:52.223Z,-61
2022-11-03T19:53:26.200Z,-61
2022-11-03T19:55:54.226Z,-61
2022-11-03T19:58:29.149Z,-63
2022-11-03T20:00:56.510Z,-69
2022-11-03T20:03:23.998Z,-69
2022-11-03T20:05:57.894Z,-69
2022-11-03T20:08:27.163Z,-71
2022-11-03T20:10:54.063Z,-69
2022-11-03T20:13:48.461Z,-69
2022-11-03T20:16:17.201Z,-68
2022-11-03T20:18:44.032Z,-68
2022-11-03T20:21:17.901Z,-68
2022-11-03T20:23:45.487Z,-69
2022-11-03T20:26:15.474Z,-69
2022-11-03T20:28:42.223Z,-69
2022-11-03T20:31:09.283Z,-69
2022-11-03T20:33:36.263Z,-68
2022-11-03T20:36:04.528Z,-69
2022-11-03T20:38:32.507Z,-68
2022-11-03T20:41:03.813Z,-67
2022-11-03T20:43:38.790Z,-58
2022-11-03T20:46:25.151Z,-72
2022-11-03T20:48:52.508Z,-69
2022-11-03T20:51:22.525Z,-65
2022-11-03T20:53:49.445Z,-68
2022-11-03T20:56:22.238Z,-67
2022-11-03T20:58:49.810Z,-70
2022-11-03T21:01:20.001Z,-68
2022-11-03T21:03:59.251Z,-72
2022-11-03T21:06:28.773Z,-73
2022-11-03T21:08:55.677Z,-69
2022-11-03T21:11:28.188Z,-70
2022-11-03T21:14:04.725Z,-72
2022-11-03T21:16:50.494Z,-69
2022-11-03T21:19:58.579Z,-71
2022-11-03T21:22:53.867Z,-71
2022-11-03T21:25:23.468Z,-70
2022-11-03T21:27:50.804Z,-72
2022-11-03T21:30:18.290Z,-69
2022-11-03T21:32:45.658Z,-70
2022-11-03T21:35:17.724Z,-71
2022-11-03T21:37:44.380Z,-71
2022-11-03T21:40:11.695Z,-69
2022-11-03T21:42:56.931Z,-68
2022-11-03T21:45:23.467Z,-71
2022-11-03T21:48:13.204Z,-69
2022-11-03T21:50:40.385Z,-70
2022-11-03T21:53:07.805Z,-72
2022-11-03T21:55:34.839Z,-69
2022-11-03T21:58:02.990Z,-71
2022-11-03T22:00:30.038Z,-72
2022-11-03T22:02:56.598Z,-72
2022-11-03T22:05:23.606Z,-69
2022-11-03T22:07:50.581Z,-70
2022-11-03T22:10:17.975Z,-70
2022-11-03T22:12:44.832Z,-72
2022-11-03T22:15:29.585Z,-72
2022-11-03T22:18:04.388Z,-69
2022-11-03T22:20:49.583Z,-70
2022-11-03T22:23:34.858Z,-69
2022-11-03T22:26:20.329Z,-70
2022-11-03T22:29:06.911Z,-74
2022-11-03T22:31:42.275Z,-72
2022-11-03T22:34:27.503Z,-69
2022-11-03T22:36:54.034Z,-71
2022-11-03T22:39:39.296Z,-72
2022-11-03T22:42:24.290Z,-72
2022-11-03T22:45:09.244Z,-70
2022-11-03T22:47:38.373Z,-72
2022-11-03T22:50:05.170Z,-69
2022-11-03T22:52:31.700Z,-71
2022-11-03T22:54:58.240Z,-71
2022-11-03T22:57:24.794Z,-72
2022-11-03T22:59:51.817Z,-68
2022-11-03T23:02:18.468Z,-69
2022-11-03T23:04:46.248Z,-70
2022-11-03T23:07:12.821Z,-72
2022-11-03T23:09:39.357Z,-69
2022-11-03T23:12:06.161Z,-71
2022-11-03T23:14:52.645Z,-71
2022-11-03T23:17:19.257Z,-71
2022-11-03T23:20:04.595Z,-71
2022-11-03T23:22:31.120Z,-69
2022-11-03T23:25:00.929Z,-75
2022-11-03T23:27:28.155Z,-72
2022-11-03T23:29:54.668Z,-74
2022-11-03T23:32:21.625Z,-69
2022-11-03T23:34:48.635Z,-73
2022-11-03T23:37:15.524Z,-71
2022-11-03T23:39:42.305Z,-69
2022-11-03T23:42:08.995Z,-72
2022-11-03T23:44:55.564Z,-73
2022-11-03T23:47:40.659Z,-69
2022-11-03T23:50:07.632Z,-72
2022-11-03T23:52:34.202Z,-71
2022-11-03T23:55:00.951Z,-70
2022-11-03T23:57:46.658Z,-71
